Time;durP1;ratioP1;P1;durP2;ratioP2;P2;SDS_P1;SDS_P2;PMS_P1;PMS_P2;Temp;Humidity;BMP_temperature;BMP_pressure;BME280_temperature;BME280_humidity;BME280_pressure;Samples;Min_cycle;Max_cycle;Signal;HPM_P1;HPM_P2
2022/07/14 04:26:49;;;;;;;;;;;12.70;79.60;;;;;;5106257;27;19973;-73
2022/07/14 04:29:15;;;;;;;;;;;12.70;79.40;;;;;;5125509;27;19959;-72
2022/07/14 04:31:42;;;;;;;;;;;12.80;77.40;;;;;;5132094;27;19957;-71
2022/07/14 04:34:08;;;;;;;;;;;12.90;76.40;;;;;;5127047;27;19911;-73
2022/07/14 04:36:35;;;;;;;;;;;13.00;75.90;;;;;;5145831;27;19912;-72
2022/07/14 04:39:02;;;;;;;;;;;13.00;77.10;;;;;;5141729;27;20002;-72
2022/07/14 04:41:28;;;;;;;;;;;13.00;77.90;;;;;;5117747;27;19969;-73
2022/07/14 04:43:55;;;;;;;;;;;13.00;77.10;;;;;;5153325;27;20269;-73
2022/07/14 04:46:22;;;;;;;;;;;13.00;75.70;;;;;;5113710;27;19919;-73
2022/07/14 04:54:17;;;;;;;;;;;13.30;74.90;;;;;;5138954;27;19933;-74
2022/07/14 04:56:44;;;;;;;;;;;13.30;75.50;;;;;;5122601;27;19914;-72
2022/07/14 04:59:10;;;;;;;;;;;13.20;76.40;;;;;;5133739;27;19922;-72
2022/07/14 05:01:37;;;;;;;;;;;13.20;75.00;;;;;;5125221;27;19997;-73
2022/07/14 05:04:04;;;;;;;;;;;13.20;75.10;;;;;;5121442;27;20421;-73
2022/07/14 05:06:30;;;;;;;;;;;13.20;73.40;;;;;;5129006;27;19939;-72
2022/07/14 05:08:57;;;;;;;;;;;13.30;72.90;;;;;;5123814;27;19923;-72
2022/07/14 05:11:23;;;;;;;;;;;13.30;74.60;;;;;;5131071;27;20001;-71
2022/07/14 05:13:53;;;;;;;;;;;13.20;75.00;;;;;;5131295;27;20254;-72
2022/07/14 05:16:19;;;;;;;;;;;13.20;74.60;;;;;;5138574;27;19963;-72
2022/07/14 05:18:46;;;;;;;;;;;13.20;74.30;;;;;;5110947;27;20416;-71
2022/07/14 05:21:13;;;;;;;;;;;13.10;75.00;;;;;;5149464;27;20291;-71
2022/07/14 05:23:40;;;;;;;;;;;13.20;75.00;;;;;;5116307;27;19907;-72
2022/07/14 05:26:10;;;;;;;;;;;13.10;74.20;;;;;;5148813;27;19970;-72
2022/07/14 05:28:36;;;;;;;;;;;13.20;75.10;;;;;;5131812;27;19970;-73
2022/07/14 05:31:03;;;;;;;;;;;13.10;74.90;;;;;;5142820;27;19907;-73
2022/07/14 05:33:30;;;;;;;;;;;13.10;74.80;;;;;;5151825;27;19969;-73
2022/07/14 05:35:56;;;;;;;;;;;13.10;73.90;;;;;;5132081;27;19907;-73
2022/07/14 05:38:23;;;;;;;;;;;13.20;73.50;;;;;;5152138;27;19950;-72
2022/07/14 05:40:50;;;;;;;;;;;13.20;73.40;;;;;;5147673;27;19944;-71
2022/07/14 05:43:18;;;;;;;;;;;13.20;74.30;;;;;;5151366;27;19918;-71
2022/07/14 05:45:46;;;;;;;;;;;13.10;74.60;;;;;;5151644;27;19911;-70
2022/07/14 05:48:12;;;;;;;;;;;13.00;73.90;;;;;;5090015;27;19915;-71
2022/07/14 05:50:39;;;;;;;;;;;13.10;73.10;;;;;;5108187;27;19922;-71
2022/07/14 05:53:06;;;;;;;;;;;13.10;73.80;;;;;;5127810;27;19912;-71
2022/07/14 05:55:33;;;;;;;;;;;13.00;74.60;;;;;;5151127;27;19915;-71
2022/07/14 05:57:59;;;;;;;;;;;13.00;73.30;;;;;;5151516;27;19952;-71
2022/07/14 06:00:26;;;;;;;;;;;13.00;73.50;;;;;;5136970;27;20199;-71
2022/07/14 06:02:52;;;;;;;;;;;13.00;73.00;;;;;;5145020;27;19907;-71
2022/07/14 06:05:19;;;;;;;;;;;13.00;73.80;;;;;;5133688;27;19915;-71
2022/07/14 06:07:45;;;;;;;;;;;12.90;74.80;;;;;;5151010;27;19919;-71
2022/07/14 06:10:15;;;;;;;;;;;12.80;75.20;;;;;;5150031;27;20192;-71
2022/07/14 06:12:42;;;;;;;;;;;12.80;75.10;;;;;;5141123;27;19938;-71
2022/07/14 06:15:08;;;;;;;;;;;12.80;73.60;;;;;;5134424;27;20466;-77
2022/07/14 06:17:35;;;;;;;;;;;12.80;74.70;;;;;;5147787;27;19915;-69
2022/07/14 06:20:06;;;;;;;;;;;12.80;73.30;;;;;;5150366;27;19918;-70
2022/07/14 06:22:41;;;;;;;;;;;12.90;72.50;;;;;;5150639;27;19922;-69
2022/07/14 06:25:08;;;;;;;;;;;12.90;73.70;;;;;;5146834;27;19915;-70
2022/07/14 06:27:35;;;;;;;;;;;12.80;73.70;;;;;;5150472;27;20288;-69
2022/07/14 06:30:04;;;;;;;;;;;12.70;72.50;;;;;;5150648;27;20001;-69
2022/07/14 06:32:30;;;;;;;;;;;12.70;73.90;;;;;;5150659;27;19998;-70
2022/07/14 06:34:57;;;;;;;;;;;12.70;73.70;;;;;;5136741;27;19911;-70
2022/07/14 06:37:23;;;;;;;;;;;12.60;74.10;;;;;;5137648;27;19922;-71
2022/07/14 06:39:50;;;;;;;;;;;12.60;74.60;;;;;;5134849;27;19964;-70
2022/07/14 06:42:17;;;;;;;;;;;12.50;73.90;;;;;;5143358;27;20318;-71
2022/07/14 06:44:43;;;;;;;;;;;12.50;74.40;;;;;;5150424;27;19933;-71
2022/07/14 06:47:11;;;;;;;;;;;12.60;71.50;;;;;;5137446;27;20278;-71
2022/07/14 06:49:37;;;;;;;;;;;12.60;73.20;;;;;;5139876;27;19926;-71
2022/07/14 06:52:05;;;;;;;;;;;12.50;74.30;;;;;;5150583;27;19938;-72
2022/07/14 06:54:31;;;;;;;;;;;12.50;74.20;;;;;;5150367;27;19974;-73
2022/07/14 06:56:58;;;;;;;;;;;12.40;74.40;;;;;;5150416;27;19990;-71
2022/07/14 06:59:25;;;;;;;;;;;12.40;74.30;;;;;;5132234;27;19916;-74
2022/07/14 07:01:51;;;;;;;;;;;12.30;74.50;;;;;;5116371;27;19915;-71
2022/07/14 07:04:18;;;;;;;;;;;12.30;74.70;;;;;;5146353;27;19907;-71
2022/07/14 07:06:44;;;;;;;;;;;12.30;74.80;;;;;;5154427;27;19923;-71
2022/07/14 07:09:11;;;;;;;;;;;12.20;74.70;;;;;;5154421;27;19911;-72
2022/07/14 07:11:38;;;;;;;;;;;12.20;73.90;;;;;;5135151;27;20357;-71
2022/07/14 07:14:05;;;;;;;;;;;12.20;74.50;;;;;;5101113;27;19915;-71
2022/07/14 07:16:31;;;;;;;;;;;12.20;74.70;;;;;;5142549;27;20369;-70
2022/07/14 07:18:58;;;;;;;;;;;12.20;74.10;;;;;;5153733;27;19945;-71
2022/07/14 07:21:25;;;;;;;;;;;12.20;75.00;;;;;;5154465;27;19956;-72
2022/07/14 07:23:51;;;;;;;;;;;12.10;74.70;;;;;;5143295;27;19927;-72
2022/07/14 07:26:20;;;;;;;;;;;12.10;74.10;;;;;;5150784;27;19971;-73
2022/07/14 07:28:47;;;;;;;;;;;12.10;74.90;;;;;;5153901;27;19923;-72
2022/07/14 07:31:14;;;;;;;;;;;12.10;75.40;;;;;;5141205;27;20399;-71
2022/07/14 07:33:40;;;;;;;;;;;12.10;74.30;;;;;;5154102;27;20360;-71
2022/07/14 07:36:07;;;;;;;;;;;12.10;74.20;;;;;;5153812;27;19918;-71
2022/07/14 07:38:34;;;;;;;;;;;12.00;74.20;;;;;;5128692;27;19915;-72
2022/07/14 07:41:03;;;;;;;;;;;12.00;74.00;;;;;;5133870;27;19951;-71
2022/07/14 07:43:31;;;;;;;;;;;12.00;74.30;;;;;;5125522;27;19936;-72
2022/07/14 07:45:57;;;;;;;;;;;12.00;75.00;;;;;;5153383;27;20364;-72
2022/07/14 07:48:24;;;;;;;;;;;12.00;74.20;;;;;;5149903;27;19911;-72
2022/07/14 07:50:50;;;;;;;;;;;11.90;74.80;;;;;;5134557;27;20277;-72
2022/07/14 07:53:17;;;;;;;;;;;11.90;74.80;;;;;;5139399;27;19922;-71
2022/07/14 07:55:43;;;;;;;;;;;11.90;74.20;;;;;;5153000;27;20310;-71
2022/07/14 07:58:10;;;;;;;;;;;11.80;73.60;;;;;;5152326;27;20395;-71
2022/07/14 08:00:36;;;;;;;;;;;11.80;74.80;;;;;;5153638;27;19914;-73
2022/07/14 08:03:04;;;;;;;;;;;11.90;73.70;;;;;;5145894;27;19911;-72
2022/07/14 08:05:30;;;;;;;;;;;11.80;72.40;;;;;;5133524;27;19911;-73
2022/07/14 08:07:57;;;;;;;;;;;11.80;73.50;;;;;;5152307;27;19915;-72
2022/07/14 08:10:23;;;;;;;;;;;11.80;73.30;;;;;;5150963;27;19915;-72
2022/07/14 08:12:50;;;;;;;;;;;11.80;73.00;;;;;;5153011;27;20013;-72
2022/07/14 08:15:17;;;;;;;;;;;11.70;72.40;;;;;;5128032;27;20355;-70
2022/07/14 08:17:44;;;;;;;;;;;11.70;73.20;;;;;;5134708;27;19908;-72
2022/07/14 08:20:12;;;;;;;;;;;11.70;73.20;;;;;;5152651;27;19911;-69
2022/07/14 08:22:38;;;;;;;;;;;11.70;73.80;;;;;;5152731;27;19940;-71
2022/07/14 08:25:06;;;;;;;;;;;11.70;73.40;;;;;;5152211;27;19915;-71
2022/07/14 08:27:33;;;;;;;;;;;11.70;72.90;;;;;;5129152;27;20019;-70
2022/07/14 08:29:59;;;;;;;;;;;11.70;72.90;;;;;;5129904;27;19959;-71
2022/07/14 08:32:36;;;;;;;;;;;11.70;73.20;;;;;;5127805;27;19915;-71
2022/07/14 08:35:03;;;;;;;;;;;11.70;72.20;;;;;;5127673;27;19923;-71
2022/07/14 08:37:29;;;;;;;;;;;11.70;72.10;;;;;;5129835;27;19915;-69
2022/07/14 08:39:56;;;;;;;;;;;11.70;72.80;;;;;;5128249;27;19922;-68
2022/07/14 08:42:22;;;;;;;;;;;11.70;73.40;;;;;;5119981;27;19918;-69
2022/07/14 08:44:50;;;;;;;;;;;11.60;73.20;;;;;;5126429;27;19911;-68
2022/07/14 08:47:16;;;;;;;;;;;11.60;72.80;;;;;;5120900;27;20279;-67
2022/07/14 08:49:43;;;;;;;;;;;11.60;72.70;;;;;;5130699;27;19998;-70
2022/07/14 08:52:10;;;;;;;;;;;11.60;72.90;;;;;;5130961;27;19915;-73
2022/07/14 08:54:36;;;;;;;;;;;11.60;72.40;;;;;;5128126;27;20265;-70
2022/07/14 08:57:03;;;;;;;;;;;11.50;71.70;;;;;;5131743;27;20326;-70
2022/07/14 08:59:30;;;;;;;;;;;11.60;72.30;;;;;;5131721;27;19980;-70
2022/07/14 09:01:57;;;;;;;;;;;11.60;72.80;;;;;;5130485;27;19955;-71
2022/07/14 09:04:24;;;;;;;;;;;11.50;72.00;;;;;;5124550;27;19916;-71
2022/07/14 09:06:54;;;;;;;;;;;11.50;72.10;;;;;;5130832;27;19919;-72
2022/07/14 09:09:20;;;;;;;;;;;11.50;72.40;;;;;;5112273;27;19912;-71
2022/07/14 10:02:21;;;;;;;;;;;11.30;74.60;;;;;;5103832;28;20049;-71
2022/07/14 10:04:48;;;;;;;;;;;11.30;74.70;;;;;;5106586;27;19916;-71
2022/07/14 10:07:15;;;;;;;;;;;11.30;73.30;;;;;;5111187;28;20373;-71
2022/07/14 10:10:02;;;;;;;;;;;11.30;74.10;;;;;;5113657;27;19908;-71
2022/07/14 10:12:28;;;;;;;;;;;11.30;71.80;;;;;;5118148;27;19918;-71
2022/07/14 10:14:59;;;;;;;;;;;11.30;73.30;;;;;;5100543;28;20303;-71
2022/07/14 10:17:27;;;;;;;;;;;11.30;72.50;;;;;;5107806;28;19911;-72
2022/07/14 10:19:53;;;;;;;;;;;11.40;72.20;;;;;;5109718;28;20258;-71
2022/07/14 10:22:20;;;;;;;;;;;11.40;72.40;;;;;;5077305;28;20254;-71
2022/07/14 10:24:47;;;;;;;;;;;11.40;71.00;;;;;;5111008;28;20301;-70
2022/07/14 10:27:15;;;;;;;;;;;11.40;69.60;;;;;;5108185;28;19929;-71
2022/07/14 10:29:41;;;;;;;;;;;11.50;69.30;;;;;;5113897;27;20377;-71
2022/07/14 10:32:27;;;;;;;;;;;11.50;69.80;;;;;;5113246;28;20320;-70
2022/07/14 10:35:00;;;;;;;;;;;11.50;70.50;;;;;;5115791;27;19915;-71
2022/07/14 10:37:34;;;;;;;;;;;11.40;71.60;;;;;;5099582;28;19911;-70
2022/07/14 10:40:04;;;;;;;;;;;11.40;73.20;;;;;;5118424;27;20387;-70
2022/07/14 10:42:33;;;;;;;;;;;11.40;73.40;;;;;;5122882;27;19936;-70
2022/07/14 10:45:01;;;;;;;;;;;11.40;73.60;;;;;;5121214;27;19918;-71
2022/07/14 10:47:41;;;;;;;;;;;11.30;74.00;;;;;;5123134;27;20432;-70
2022/07/14 10:50:09;;;;;;;;;;;11.20;73.90;;;;;;5113616;27;19961;-70
2022/07/14 10:53:00;;;;;;;;;;;11.20;74.10;;;;;;5111023;27;19915;-72
2022/07/14 10:55:30;;;;;;;;;;;11.10;74.00;;;;;;5108474;27;19912;-71
2022/07/14 10:57:59;;;;;;;;;;;11.10;74.30;;;;;;5088418;28;20270;-72
2022/07/14 11:00:43;;;;;;;;;;;11.10;74.50;;;;;;5113177;28;19919;-73
2022/07/14 11:03:22;;;;;;;;;;;11.00;74.70;;;;;;5132484;27;19919;-72
2022/07/14 11:06:05;;;;;;;;;;;11.00;75.00;;;;;;5133344;27;19911;-73
2022/07/14 11:08:31;;;;;;;;;;;11.00;74.60;;;;;;5133707;27;20003;-73
2022/07/14 11:10:58;;;;;;;;;;;10.90;75.40;;;;;;5131946;27;19958;-73
2022/07/14 11:13:25;;;;;;;;;;;10.90;74.70;;;;;;5133449;27;19917;-72
2022/07/14 11:15:53;;;;;;;;;;;10.90;74.90;;;;;;5136450;27;20346;-71
2022/07/14 11:18:24;;;;;;;;;;;10.80;74.30;;;;;;5134993;27;19911;-68
2022/07/14 11:21:06;;;;;;;;;;;10.80;74.50;;;;;;5131485;27;20011;-75
2022/07/14 11:23:34;;;;;;;;;;;10.80;74.90;;;;;;5128537;27;20434;-74
2022/07/14 11:26:04;;;;;;;;;;;10.70;75.40;;;;;;5129880;27;19916;-75
2022/07/14 11:28:40;;;;;;;;;;;10.70;74.70;;;;;;5128505;27;20014;-75
2022/07/14 11:31:16;;;;;;;;;;;10.70;74.50;;;;;;5125576;27;20418;-74
2022/07/14 11:36:31;;;;;;;;;;;10.70;75.60;;;;;;5133595;27;20007;-74
2022/07/14 11:39:16;;;;;;;;;;;10.60;75.70;;;;;;5119775;27;19958;-74
2022/07/14 11:41:46;;;;;;;;;;;10.60;76.30;;;;;;5132688;27;20068;-74
2022/07/14 11:44:31;;;;;;;;;;;10.50;76.40;;;;;;5133265;27;20344;-74
2022/07/14 11:47:00;;;;;;;;;;;10.50;76.40;;;;;;5113338;27;19923;-75
2022/07/14 11:49:27;;;;;;;;;;;10.40;76.80;;;;;;5122001;27;19922;-74
2022/07/14 11:51:57;;;;;;;;;;;10.40;76.80;;;;;;5127529;27;20507;-74
2022/07/14 11:54:24;;;;;;;;;;;10.30;76.20;;;;;;5124194;27;19919;-74
2022/07/14 11:57:01;;;;;;;;;;;10.30;77.00;;;;;;5115077;27;19912;-75
2022/07/14 11:59:27;;;;;;;;;;;10.30;77.30;;;;;;5103100;27;19970;-73
2022/07/14 12:01:55;;;;;;;;;;;10.30;77.50;;;;;;5107797;27;19934;-74
2022/07/14 12:04:22;;;;;;;;;;;10.30;77.30;;;;;;5099712;27;19959;-76
2022/07/14 12:06:49;;;;;;;;;;;10.30;77.20;;;;;;5132808;27;19919;-73
2022/07/14 12:09:27;;;;;;;;;;;10.20;77.00;;;;;;5132798;27;19915;-73
2022/07/14 12:11:54;;;;;;;;;;;10.20;76.90;;;;;;5133053;27;19923;-75
2022/07/14 12:14:20;;;;;;;;;;;10.20;77.50;;;;;;5132008;27;19936;-76
2022/07/14 12:16:47;;;;;;;;;;;10.20;77.30;;;;;;5143608;27;20393;-74
2022/07/14 12:19:14;;;;;;;;;;;10.20;77.60;;;;;;5153302;27;19908;-73
2022/07/14 12:21:41;;;;;;;;;;;10.20;77.90;;;;;;5151404;27;19911;-74
2022/07/14 12:24:11;;;;;;;;;;;10.10;78.10;;;;;;5149705;27;19997;-74
2022/07/14 12:26:37;;;;;;;;;;;10.00;78.10;;;;;;5146747;27;20394;-74
2022/07/14 12:29:04;;;;;;;;;;;10.00;78.50;;;;;;5140184;27;20428;-74
2022/07/14 12:31:37;;;;;;;;;;;10.00;78.30;;;;;;5153289;27;19948;-74
2022/07/14 12:34:04;;;;;;;;;;;10.00;78.20;;;;;;5115142;27;19916;-74
2022/07/14 12:36:30;;;;;;;;;;;9.90;78.70;;;;;;5151558;27;19917;-74
2022/07/14 12:38:57;;;;;;;;;;;9.90;78.50;;;;;;5153046;27;20422;-75
2022/07/14 12:41:24;;;;;;;;;;;9.90;79.20;;;;;;5131882;27;20647;-74
2022/07/14 12:43:51;;;;;;;;;;;9.80;79.70;;;;;;5116455;27;19911;-75
2022/07/14 12:46:18;;;;;;;;;;;9.80;80.00;;;;;;5153334;27;19911;-78
2022/07/14 12:48:51;;;;;;;;;;;9.80;79.70;;;;;;5153138;27;19922;-75
2022/07/14 12:51:22;;;;;;;;;;;9.80;80.20;;;;;;5152850;27;19915;-76
2022/07/14 12:54:08;;;;;;;;;;;9.70;80.40;;;;;;5137350;27;19916;-72
2022/07/14 12:56:47;;;;;;;;;;;9.70;79.90;;;;;;5148286;27;20304;-73
2022/07/14 12:59:14;;;;;;;;;;;9.70;80.10;;;;;;5124692;27;20319;-73
2022/07/14 13:01:47;;;;;;;;;;;9.70;80.40;;;;;;5146252;27;19927;-73
2022/07/14 13:04:18;;;;;;;;;;;9.70;80.40;;;;;;5111675;27;20022;-73
2022/07/14 13:06:45;;;;;;;;;;;9.70;80.30;;;;;;5148733;27;19967;-72
2022/07/14 13:09:13;;;;;;;;;;;9.60;80.60;;;;;;5129732;27;19911;-73
2022/07/14 13:11:40;;;;;;;;;;;9.60;80.50;;;;;;5149647;27;19914;-73
2022/07/14 13:14:08;;;;;;;;;;;9.60;80.60;;;;;;5151991;27;19934;-73
2022/07/14 13:16:35;;;;;;;;;;;9.60;81.10;;;;;;5142922;27;20001;-74
2022/07/14 13:19:06;;;;;;;;;;;9.60;81.00;;;;;;5154243;27;20399;-73
2022/07/14 13:21:46;;;;;;;;;;;9.60;80.90;;;;;;5108579;27;19907;-73
2022/07/14 13:24:13;;;;;;;;;;;9.50;81.10;;;;;;5145862;27;20317;-73
2022/07/14 13:26:39;;;;;;;;;;;9.50;81.40;;;;;;5124084;27;20333;-73
2022/07/14 13:29:07;;;;;;;;;;;9.50;81.50;;;;;;5154313;27;19911;-73
2022/07/14 13:31:33;;;;;;;;;;;9.50;81.40;;;;;;5125886;27;19933;-73
2022/07/14 13:34:01;;;;;;;;;;;9.40;81.20;;;;;;5150662;27;19911;-73
2022/07/14 13:36:28;;;;;;;;;;;9.40;81.40;;;;;;5142686;27;19911;-73
2022/07/14 13:38:55;;;;;;;;;;;9.40;80.90;;;;;;5145895;27;19918;-73
2022/07/14 13:41:22;;;;;;;;;;;9.30;81.00;;;;;;5150938;27;19942;-73
2022/07/14 13:43:50;;;;;;;;;;;9.30;81.60;;;;;;5144539;27;20287;-73
2022/07/14 13:46:17;;;;;;;;;;;9.30;81.40;;;;;;5144396;27;20292;-73
2022/07/14 13:48:43;;;;;;;;;;;9.30;81.40;;;;;;5154252;27;20310;-73
2022/07/14 13:53:55;;;;;;;;;;;9.30;81.50;;;;;;5139073;27;19940;-73
2022/07/14 13:56:21;;;;;;;;;;;9.30;81.10;;;;;;5153841;27;19907;-73
2022/07/14 13:58:48;;;;;;;;;;;9.40;81.40;;;;;;5153623;27;19928;-73
2022/07/14 14:01:14;;;;;;;;;;;9.40;81.30;;;;;;5152078;27;19919;-73
2022/07/14 14:03:41;;;;;;;;;;;9.30;81.20;;;;;;5123384;27;19917;-73
2022/07/14 14:06:11;;;;;;;;;;;9.30;80.70;;;;;;5154258;27;19908;-72
2022/07/14 14:08:37;;;;;;;;;;;9.30;81.00;;;;;;5126326;27;19907;-73
2022/07/14 14:11:04;;;;;;;;;;;9.30;81.10;;;;;;5149011;27;19966;-73
2022/07/14 14:13:31;;;;;;;;;;;9.30;80.90;;;;;;5135239;27;19911;-73
2022/07/14 14:15:57;;;;;;;;;;;9.20;80.70;;;;;;5139324;27;19911;-73
2022/07/14 14:18:24;;;;;;;;;;;9.20;80.40;;;;;;5118378;27;20010;-73
2022/07/14 14:20:51;;;;;;;;;;;9.20;81.00;;;;;;5134455;27;19912;-73
2022/07/14 14:23:17;;;;;;;;;;;9.20;80.50;;;;;;5136675;27;19920;-73
2022/07/14 14:25:44;;;;;;;;;;;9.10;80.50;;;;;;5131785;27;21345;-72
2022/07/14 14:28:11;;;;;;;;;;;9.10;81.00;;;;;;5152078;27;19969;-72
2022/07/14 14:30:38;;;;;;;;;;;9.10;80.90;;;;;;5123503;27;19912;-73
2022/07/14 14:33:05;;;;;;;;;;;9.10;80.80;;;;;;5117777;27;19911;-73
2022/07/14 14:35:31;;;;;;;;;;;9.10;80.60;;;;;;5150778;27;19907;-73
2022/07/14 14:37:58;;;;;;;;;;;9.10;81.60;;;;;;5149340;27;19919;-73
2022/07/14 14:40:25;;;;;;;;;;;9.10;81.20;;;;;;5102165;28;19998;-73
2022/07/14 14:42:51;;;;;;;;;;;9.10;81.40;;;;;;5130066;27;20357;-73
2022/07/14 14:45:18;;;;;;;;;;;9.10;81.70;;;;;;5152713;27;19908;-73
2022/07/14 14:47:45;;;;;;;;;;;9.00;81.70;;;;;;5145988;27;19919;-73
2022/07/14 14:50:11;;;;;;;;;;;9.00;81.40;;;;;;5137990;27;19915;-73
2022/07/14 14:52:38;;;;;;;;;;;9.00;82.60;;;;;;5117810;27;20222;-73
2022/07/14 14:55:05;;;;;;;;;;;9.00;82.20;;;;;;5153511;27;19960;-72
2022/07/14 14:57:31;;;;;;;;;;;9.00;83.00;;;;;;5153722;27;19907;-73
2022/07/14 14:59:58;;;;;;;;;;;8.90;82.40;;;;;;5149362;27;19922;-72
2022/07/14 15:02:27;;;;;;;;;;;8.90;82.00;;;;;;5153108;27;19954;-73
2022/07/14 15:04:54;;;;;;;;;;;8.90;82.30;;;;;;5153527;27;20221;-73
2022/07/14 15:07:21;;;;;;;;;;;8.90;82.50;;;;;;5153590;27;19915;-73
2022/07/14 15:09:50;;;;;;;;;;;8.90;82.80;;;;;;5147553;27;20461;-72
2022/07/14 15:12:17;;;;;;;;;;;8.90;82.50;;;;;;5147862;27;20020;-73
2022/07/14 15:14:44;;;;;;;;;;;8.90;83.00;;;;;;5136956;27;20080;-72
2022/07/14 15:17:10;;;;;;;;;;;8.90;82.70;;;;;;5097384;28;19976;-73
2022/07/14 15:19:37;;;;;;;;;;;8.90;82.80;;;;;;5153273;27;19912;-73
2022/07/14 15:22:03;;;;;;;;;;;8.90;82.80;;;;;;5111819;27;19912;-73
2022/07/14 15:24:30;;;;;;;;;;;8.90;82.40;;;;;;5155056;27;19929;-73
2022/07/14 15:26:56;;;;;;;;;;;8.80;82.60;;;;;;5146414;27;20010;-73
2022/07/14 15:29:23;;;;;;;;;;;8.80;82.70;;;;;;5143132;27;19919;-73
2022/07/14 15:31:50;;;;;;;;;;;8.80;82.80;;;;;;5143826;27;19918;-73
2022/07/14 15:34:17;;;;;;;;;;;8.80;82.20;;;;;;5156541;27;19914;-73
2022/07/14 15:36:43;;;;;;;;;;;8.70;82.40;;;;;;5156412;27;20365;-73
2022/07/14 15:41:55;;;;;;;;;;;8.80;82.60;;;;;;5109809;27;20396;-73
2022/07/14 15:44:23;;;;;;;;;;;8.80;82.80;;;;;;5148806;27;19911;-73
2022/07/14 15:46:49;;;;;;;;;;;8.70;82.50;;;;;;5142605;27;20517;-73
2022/07/14 15:49:16;;;;;;;;;;;8.70;82.70;;;;;;5145068;27;19912;-73
2022/07/14 15:51:43;;;;;;;;;;;8.70;83.00;;;;;;5154234;27;19952;-73
2022/07/14 15:54:09;;;;;;;;;;;8.70;83.30;;;;;;5156510;27;19914;-73
2022/07/14 15:56:36;;;;;;;;;;;8.60;83.10;;;;;;5137883;27;19946;-73
2022/07/14 15:59:02;;;;;;;;;;;8.60;83.30;;;;;;5156551;27;19907;-73
2022/07/14 16:01:29;;;;;;;;;;;8.60;83.50;;;;;;5137502;27;19938;-73
2022/07/14 16:03:57;;;;;;;;;;;8.60;83.70;;;;;;5135926;27;19911;-73
2022/07/14 16:06:23;;;;;;;;;;;8.60;84.10;;;;;;5132167;27;19958;-73
2022/07/14 16:08:50;;;;;;;;;;;8.60;84.00;;;;;;5153705;27;19911;-73
2022/07/14 16:11:17;;;;;;;;;;;8.50;84.10;;;;;;5156130;27;19913;-73
2022/07/14 16:13:44;;;;;;;;;;;8.50;83.90;;;;;;5152187;27;19915;-73
2022/07/14 16:16:11;;;;;;;;;;;8.50;83.90;;;;;;5140841;27;19919;-73
2022/07/14 16:18:38;;;;;;;;;;;8.50;84.10;;;;;;5142034;27;19923;-73
2022/07/14 16:21:04;;;;;;;;;;;8.50;84.00;;;;;;5123944;27;20039;-73
2022/07/14 16:23:31;;;;;;;;;;;8.50;84.60;;;;;;5155943;27;20321;-73
2022/07/14 16:25:58;;;;;;;;;;;8.50;84.40;;;;;;5151381;27;19947;-73
2022/07/14 16:28:24;;;;;;;;;;;8.40;84.10;;;;;;5155861;27;19923;-73
2022/07/14 16:30:51;;;;;;;;;;;8.40;84.30;;;;;;5135752;27;19955;-73
2022/07/14 16:33:17;;;;;;;;;;;8.30;84.40;;;;;;5142606;27;19911;-73
2022/07/14 16:35:44;;;;;;;;;;;8.30;84.30;;;;;;5132069;27;19934;-73
2022/07/14 16:38:11;;;;;;;;;;;8.40;84.50;;;;;;5152847;27;20071;-73
2022/07/14 16:40:37;;;;;;;;;;;8.30;84.20;;;;;;5137212;27;19930;-73
2022/07/14 16:43:04;;;;;;;;;;;8.30;84.70;;;;;;5104347;27;21860;-73
2022/07/14 16:45:30;;;;;;;;;;;8.30;84.10;;;;;;5126107;27;19912;-73
2022/07/14 16:47:58;;;;;;;;;;;8.30;84.10;;;;;;5144873;27;20014;-73
2022/07/14 16:50:24;;;;;;;;;;;8.30;84.10;;;;;;5125630;27;20036;-73
2022/07/14 16:52:51;;;;;;;;;;;8.30;83.70;;;;;;5141859;27;19946;-73
2022/07/14 16:55:18;;;;;;;;;;;8.30;83.50;;;;;;5104622;27;19911;-73
2022/07/14 16:57:45;;;;;;;;;;;8.30;83.90;;;;;;5128100;27;19961;-73
2022/07/14 17:00:14;;;;;;;;;;;8.30;84.20;;;;;;5155241;27;19914;-73
2022/07/14 17:02:41;;;;;;;;;;;8.30;83.60;;;;;;5155420;27;19927;-73
2022/07/14 17:07:53;;;;;;;;;;;8.30;83.60;;;;;;5124675;27;19942;-73
2022/07/14 17:10:19;;;;;;;;;;;8.30;83.70;;;;;;5115208;27;20388;-73
2022/07/14 17:12:46;;;;;;;;;;;8.20;83.40;;;;;;5141565;27;19933;-73
2022/07/14 17:15:12;;;;;;;;;;;8.30;83.50;;;;;;5128931;27;20392;-73
2022/07/14 17:17:39;;;;;;;;;;;8.20;83.70;;;;;;5129167;27;20282;-73
2022/07/14 17:20:06;;;;;;;;;;;8.30;83.90;;;;;;5149664;27;19945;-73
2022/07/14 17:22:32;;;;;;;;;;;8.20;83.90;;;;;;5125393;27;19976;-73
2022/07/14 17:24:59;;;;;;;;;;;8.20;84.30;;;;;;5126162;27;19912;-73
2022/07/14 17:27:25;;;;;;;;;;;8.20;84.10;;;;;;5131269;27;19976;-73
2022/07/14 17:29:52;;;;;;;;;;;8.20;84.00;;;;;;5136394;27;19918;-73
2022/07/14 17:32:19;;;;;;;;;;;8.10;84.30;;;;;;5154721;27;20323;-73
2022/07/14 17:34:46;;;;;;;;;;;8.10;84.20;;;;;;5135047;27;20369;-73
2022/07/14 17:37:12;;;;;;;;;;;8.10;84.30;;;;;;5119988;27;19914;-73
2022/07/14 17:39:40;;;;;;;;;;;8.10;84.00;;;;;;5142979;27;19952;-73
2022/07/14 17:42:07;;;;;;;;;;;8.10;84.30;;;;;;5122448;27;19915;-73
2022/07/14 17:44:33;;;;;;;;;;;8.10;84.30;;;;;;5153650;27;19907;-73
2022/07/14 17:47:00;;;;;;;;;;;8.00;84.20;;;;;;5154437;27;19922;-73
2022/07/14 17:49:26;;;;;;;;;;;8.10;84.30;;;;;;5153860;27;19934;-73
2022/07/14 17:52:11;;;;;;;;;;;8.10;84.50;;;;;;5145840;27;19911;-73
2022/07/14 17:54:38;;;;;;;;;;;8.10;85.00;;;;;;5154329;27;19938;-73
2022/07/14 17:57:05;;;;;;;;;;;8.10;84.90;;;;;;5142149;27;19912;-73
2022/07/14 17:59:31;;;;;;;;;;;8.00;85.30;;;;;;5154336;27;19911;-73
2022/07/14 18:01:58;;;;;;;;;;;8.00;85.00;;;;;;5134739;27;19928;-73
2022/07/14 18:04:25;;;;;;;;;;;7.90;85.30;;;;;;5145376;27;20076;-73
2022/07/14 18:06:51;;;;;;;;;;;7.90;85.30;;;;;;5123597;27;20035;-73
2022/07/14 18:09:18;;;;;;;;;;;7.90;85.30;;;;;;5146697;27;19919;-73
2022/07/14 18:11:45;;;;;;;;;;;7.90;85.10;;;;;;5139972;27;20279;-73
2022/07/14 18:14:12;;;;;;;;;;;7.90;85.10;;;;;;5139492;27;20273;-73
2022/07/14 18:16:39;;;;;;;;;;;7.90;85.20;;;;;;5130093;27;20349;-73
2022/07/14 18:19:05;;;;;;;;;;;7.90;85.30;;;;;;5132844;27;19911;-72
2022/07/14 18:21:32;;;;;;;;;;;7.90;85.10;;;;;;5124457;27;20361;-73
2022/07/14 18:23:59;;;;;;;;;;;7.80;85.50;;;;;;5126024;27;19983;-73
2022/07/14 18:26:25;;;;;;;;;;;7.80;85.10;;;;;;5113801;28;19920;-73
2022/07/14 18:28:52;;;;;;;;;;;7.90;85.40;;;;;;5135429;27;19998;-73
2022/07/14 18:31:19;;;;;;;;;;;7.80;84.80;;;;;;5135249;27;19919;-73
2022/07/14 18:33:46;;;;;;;;;;;7.80;84.90;;;;;;5137481;27;20268;-73
2022/07/14 18:36:12;;;;;;;;;;;7.80;84.40;;;;;;5139939;27;19913;-73
2022/07/14 18:38:39;;;;;;;;;;;7.90;84.50;;;;;;5125228;27;19912;-73
2022/07/14 18:41:06;;;;;;;;;;;7.80;84.40;;;;;;5129697;27;19912;-73
2022/07/14 18:43:32;;;;;;;;;;;7.90;84.30;;;;;;5132669;27;19932;-73
2022/07/14 18:46:15;;;;;;;;;;;7.90;84.10;;;;;;5132712;27;19907;-72
2022/07/14 18:48:42;;;;;;;;;;;7.80;83.70;;;;;;5132125;28;19923;-72
2022/07/14 18:51:09;;;;;;;;;;;7.80;83.40;;;;;;5114713;27;19918;-73
2022/07/14 18:53:36;;;;;;;;;;;7.90;83.60;;;;;;5096870;28;20368;-73
2022/07/14 18:56:06;;;;;;;;;;;7.80;83.70;;;;;;5134900;27;20048;-73
2022/07/14 18:58:33;;;;;;;;;;;7.90;83.60;;;;;;5136919;27;19911;-73
2022/07/14 19:01:00;;;;;;;;;;;7.80;83.60;;;;;;5118373;27;20281;-73
2022/07/14 19:03:26;;;;;;;;;;;7.80;83.80;;;;;;5137009;27;19908;-73
2022/07/14 19:05:53;;;;;;;;;;;7.80;83.60;;;;;;5118505;27;20383;-73
2022/07/14 19:08:20;;;;;;;;;;;7.70;83.70;;;;;;5136996;27;19916;-73
2022/07/14 19:10:47;;;;;;;;;;;7.70;83.60;;;;;;5136708;27;19986;-72
2022/07/14 19:13:22;;;;;;;;;;;7.70;83.30;;;;;;5136596;27;19908;-72
2022/07/14 19:15:49;;;;;;;;;;;7.70;83.60;;;;;;5150664;27;20272;-73
2022/07/14 19:18:16;;;;;;;;;;;7.70;83.70;;;;;;5138544;27;20356;-73
2022/07/14 19:20:43;;;;;;;;;;;7.70;83.90;;;;;;5157241;27;20334;-73
2022/07/14 19:23:10;;;;;;;;;;;7.70;83.50;;;;;;5157278;27;19919;-73
2022/07/14 19:25:36;;;;;;;;;;;7.70;83.20;;;;;;5157258;27;20002;-73
2022/07/14 19:28:04;;;;;;;;;;;7.70;83.40;;;;;;5156859;27;19915;-73
2022/07/14 19:30:31;;;;;;;;;;;7.70;82.70;;;;;;5156981;27;19930;-73
2022/07/14 19:32:58;;;;;;;;;;;7.70;82.90;;;;;;5156961;27;20242;-73
2022/07/14 19:35:24;;;;;;;;;;;7.70;83.20;;;;;;5156946;27;20346;-72
2022/07/14 19:37:51;;;;;;;;;;;7.70;83.10;;;;;;5156960;27;20295;-73
2022/07/14 19:40:19;;;;;;;;;;;7.70;82.50;;;;;;5156674;27;19914;-73
2022/07/14 19:42:46;;;;;;;;;;;7.70;82.80;;;;;;5138668;27;20276;-73
2022/07/14 19:45:13;;;;;;;;;;;7.70;83.50;;;;;;5156974;27;20396;-73
2022/07/14 19:47:39;;;;;;;;;;;7.70;83.10;;;;;;5138053;27;20384;-73
2022/07/14 19:50:06;;;;;;;;;;;7.70;83.20;;;;;;5156763;27;20355;-73
2022/07/14 19:52:32;;;;;;;;;;;7.70;83.50;;;;;;5138373;27;20319;-73
2022/07/14 19:54:59;;;;;;;;;;;7.70;83.40;;;;;;5156764;27;19907;-73
2022/07/14 19:57:26;;;;;;;;;;;7.70;83.90;;;;;;5127670;27;19907;-73
2022/07/14 19:59:52;;;;;;;;;;;7.60;84.30;;;;;;5156305;27;20288;-73